createdAt,value
2019-04-19T00:00:10.136Z,1006.87
2019-04-19T00:01:33.094Z,1006.88
2019-04-19T00:03:20.032Z,1006.88
2019-04-19T00:04:52.779Z,1006.89
2019-04-19T00:06:18.887Z,1006.91
2019-04-19T00:07:52.480Z,1006.91
2019-04-19T00:10:36.004Z,1006.94
2019-04-19T00:12:42.327Z,1006.89
2019-04-19T00:14:12.605Z,1006.91
2019-04-19T00:15:24.435Z,1006.98
2019-04-19T00:16:38.489Z,1006.94
2019-04-19T00:17:52.203Z,1006.95
2019-04-19T00:19:52.140Z,1007
2019-04-19T00:23:12.937Z,1007.03
2019-04-19T00:24:54.408Z,1007
2019-04-19T00:26:06.128Z,1007.01
2019-04-19T00:27:18.004Z,1006.98
2019-04-19T00:29:05.663Z,1007
2019-04-19T00:31:16.618Z,1007.02
2019-04-19T00:33:41.401Z,1007.01
2019-04-19T00:35:05.364Z,1007
2019-04-19T00:36:18.100Z,1006.98
2019-04-19T00:37:31.018Z,1006.96
2019-04-19T00:38:53.955Z,1006.97
2019-04-19T00:41:56.565Z,1006.99
2019-04-19T00:44:56.532Z,1007.02
2019-04-19T00:47:50.943Z,1007.03
2019-04-19T00:50:37.988Z,1006.98
2019-04-19T00:53:18.086Z,1006.95
2019-04-19T00:55:25.727Z,1006.92
2019-04-19T00:57:39.082Z,1006.94
2019-04-19T00:59:24.352Z,1006.97
2019-04-19T01:01:04.873Z,1006.97
2019-04-19T01:02:40.450Z,1006.96
2019-04-19T01:04:11.713Z,1006.99
2019-04-19T01:05:46.959Z,1006.99
2019-04-19T01:07:29.622Z,1007.02
2019-04-19T01:08:56.943Z,1006.98
2019-04-19T01:11:27.244Z,1006.99
2019-04-19T01:14:00.791Z,1006.95
2019-04-19T01:16:26.502Z,1006.96
2019-04-19T01:19:06.929Z,1006.93
2019-04-19T01:20:28.953Z,1006.88
2019-04-19T01:21:40.732Z,1006.9
2019-04-19T01:22:58.459Z,1006.85
2019-04-19T01:24:30.546Z,1006.96
2019-04-19T01:26:00.620Z,1006.99
2019-04-19T01:27:25.983Z,1006.99
2019-04-19T01:28:53.481Z,1006.99
2019-04-19T01:30:28.820Z,1006.98
2019-04-19T01:31:58.012Z,1007.01
2019-04-19T01:33:32.461Z,1006.98
2019-04-19T01:35:00.793Z,1007.01
2019-04-19T01:36:32.051Z,1007
2019-04-19T01:38:00.595Z,1006.98
2019-04-19T01:39:31.987Z,1006.98
2019-04-19T01:42:31.098Z,1007.01
2019-04-19T01:45:41.660Z,1006.97
2019-04-19T01:48:42.830Z,1007
2019-04-19T01:51:19.836Z,1006.96
2019-04-19T01:54:45.251Z,1006.96
2019-04-19T01:56:38.641Z,1006.99
2019-04-19T01:58:19.300Z,1007.03
2019-04-19T01:59:40.520Z,1007.06
2019-04-19T02:01:12.126Z,1007.03
2019-04-19T02:02:43.566Z,1007.05
2019-04-19T02:04:19.391Z,1007.08
2019-04-19T02:05:47.278Z,1007.09
2019-04-19T02:07:27.098Z,1007.09
2019-04-19T02:08:54.099Z,1007.07
2019-04-19T02:10:21.279Z,1007.09
2019-04-19T02:12:46.606Z,1007.07
2019-04-19T02:14:58.981Z,1007.07
2019-04-19T02:16:52.385Z,1007.08
2019-04-19T02:18:24.485Z,1007.05
2019-04-19T02:19:47.845Z,1007.06
2019-04-19T02:21:22.395Z,1007.08
2019-04-19T02:22:57.714Z,1007.09
2019-04-19T02:24:29.470Z,1007.11
2019-04-19T02:26:09.552Z,1007.05
2019-04-19T02:27:33.782Z,1007.08
2019-04-19T02:29:02.451Z,1007.02
2019-04-19T02:30:53.361Z,1007.06
2019-04-19T02:34:28.641Z,1007.06
2019-04-19T02:38:20.871Z,1007.03
2019-04-19T02:42:30.235Z,1007.06
2019-04-19T02:47:05.456Z,1007.1
2019-04-19T02:51:23.699Z,1007.08
2019-04-19T02:59:29.246Z,1007.08
2019-04-19T03:04:23.829Z,1007.07
2019-04-19T03:07:36.484Z,1007.06
2019-04-19T03:08:52.503Z,1007.05
2019-04-19T03:10:10.442Z,1007.01
2019-04-19T03:12:00.457Z,1007.01
2019-04-19T03:15:05.206Z,1007.03
2019-04-19T03:18:13.260Z,1007.07
2019-04-19T03:21:01.398Z,1007.09
2019-04-19T03:23:54.573Z,1007.08
2019-04-19T03:26:40.990Z,1007.09
2019-04-19T03:28:57.154Z,1007.05
2019-04-19T03:31:13.719Z,1007.07
2019-04-19T03:35:43.164Z,1007.03
2019-04-19T03:38:38.631Z,1007.07
2019-04-19T03:42:00.858Z,1007.05
2019-04-19T03:45:12.645Z,1007.09
2019-04-19T03:48:38.865Z,1007.17
2019-04-19T03:52:03.032Z,1007.16
2019-04-19T03:55:28.407Z,1007.22
2019-04-19T03:58:20.566Z,1007.14
2019-04-19T03:59:39.326Z,1007.2
2019-04-19T04:00:51.848Z,1007.17
2019-04-19T04:02:04.207Z,1007.2
2019-04-19T04:03:40.474Z,1007.17
2019-04-19T04:05:23.085Z,1007.19
2019-04-19T04:06:59.117Z,1007.22
2019-04-19T04:08:43.801Z,1007.22
2019-04-19T04:10:20.940Z,1007.28
2019-04-19T04:11:59.100Z,1007.26
2019-04-19T04:14:26.677Z,1007.3
2019-04-19T04:16:51.973Z,1007.33
2019-04-19T04:18:06.869Z,1007.35
2019-04-19T04:19:18.645Z,1007.34
2019-04-19T04:20:30.719Z,1007.35
2019-04-19T04:22:01.044Z,1007.35
2019-04-19T04:23:48.309Z,1007.37
2019-04-19T04:25:59.021Z,1007.41
2019-04-19T04:28:06.671Z,1007.45
2019-04-19T04:30:29.516Z,1007.43
2019-04-19T04:32:46.493Z,1007.47
2019-04-19T04:35:10.297Z,1007.5
2019-04-19T04:37:58.000Z,1007.53
2019-04-19T04:39:45.118Z,1007.54
2019-04-19T04:40:59.379Z,1007.55
2019-04-19T04:42:43.201Z,1007.57
2019-04-19T04:45:32.179Z,1007.53
2019-04-19T04:48:52.504Z,1007.56
2019-04-19T04:52:14.951Z,1007.51
2019-04-19T04:53:49.459Z,1007.54
2019-04-19T04:55:00.994Z,1007.47
2019-04-19T04:56:13.779Z,1007.47
2019-04-19T04:57:56.977Z,1007.45
2019-04-19T04:59:37.604Z,1007.44
2019-04-19T05:01:08.957Z,1007.44
2019-04-19T05:03:38.608Z,1007.46
2019-04-19T05:06:25.314Z,1007.47
2019-04-19T05:09:31.669Z,1007.46
2019-04-19T05:12:46.026Z,1007.5
2019-04-19T05:16:04.079Z,1007.52
2019-04-19T05:20:03.336Z,1007.51
2019-04-19T05:22:53.385Z,1007.51
2019-04-19T05:26:29.012Z,1007.53
2019-04-19T05:29:38.739Z,1007.43
2019-04-19T05:31:08.300Z,1007.44
2019-04-19T05:33:09.404Z,1007.45
2019-04-19T05:36:02.678Z,1007.51
2019-04-19T05:39:02.457Z,1007.52
2019-04-19T05:42:03.200Z,1007.5
2019-04-19T05:45:36.429Z,1007.5
2019-04-19T05:48:35.912Z,1007.52
2019-04-19T05:51:19.382Z,1007.58
2019-04-19T05:54:11.634Z,1007.56
2019-04-19T05:55:28.519Z,1007.54
2019-04-19T05:56:44.774Z,1007.57
2019-04-19T05:59:14.608Z,1007.58
2019-04-19T06:01:40.998Z,1007.61
2019-04-19T06:03:57.192Z,1007.67
2019-04-19T06:07:21.544Z,1007.69
2019-04-19T06:09:28.595Z,1007.73
2019-04-19T06:10:46.399Z,1007.72
2019-04-19T06:12:25.051Z,1007.73
2019-04-19T06:14:16.688Z,1007.7
2019-04-19T06:17:36.426Z,1007.72
2019-04-19T06:20:25.859Z,1007.72
2019-04-19T06:23:26.565Z,1007.7
2019-04-19T06:26:47.540Z,1007.7
2019-04-19T06:30:36.029Z,1007.72
2019-04-19T06:34:03.395Z,1007.76
2019-04-19T06:36:37.614Z,1007.8
2019-04-19T06:38:18.236Z,1007.82
2019-04-19T06:39:30.852Z,1007.8
2019-04-19T06:40:48.918Z,1007.81
2019-04-19T06:42:35.528Z,1007.85
2019-04-19T06:45:02.765Z,1007.81
2019-04-19T06:47:36.058Z,1007.77
2019-04-19T06:49:28.166Z,1007.77
2019-04-19T06:50:46.801Z,1007.76
2019-04-19T06:52:41.181Z,1007.79
2019-04-19T06:53:58.661Z,1007.77
2019-04-19T06:55:42.978Z,1007.79
2019-04-19T06:57:37.221Z,1007.8
2019-04-19T06:59:54.690Z,1007.8
2019-04-19T07:02:13.838Z,1007.81
2019-04-19T07:03:25.656Z,1007.8
2019-04-19T07:04:48.173Z,1007.82
2019-04-19T07:07:29.582Z,1007.81
2019-04-19T07:11:39.277Z,1007.81
2019-04-19T07:14:29.446Z,1007.83
2019-04-19T07:17:33.894Z,1007.8
2019-04-19T07:20:19.580Z,1007.79
2019-04-19T07:23:32.007Z,1007.86
2019-04-19T07:27:05.694Z,1007.9
2019-04-19T07:29:12.852Z,1007.89
2019-04-19T07:30:26.644Z,1007.9
2019-04-19T07:31:48.977Z,1007.91
2019-04-19T07:33:07.167Z,1007.93
2019-04-19T07:35:54.023Z,1007.9
2019-04-19T07:39:20.215Z,1007.89
2019-04-19T07:42:33.197Z,1007.87
2019-04-19T07:45:13.585Z,1007.86
2019-04-19T07:48:00.680Z,1007.84
2019-04-19T07:49:40.282Z,1007.84
2019-04-19T07:51:39.424Z,1007.87
2019-04-19T07:53:39.534Z,1007.89
2019-04-19T07:55:16.186Z,1007.85
2019-04-19T07:56:48.280Z,1007.83
2019-04-19T08:08:15.670Z,1007.9
2019-04-19T08:12:16.481Z,1007.97
2019-04-19T08:16:52.921Z,1007.97
2019-04-19T08:28:43.050Z,1007.9
2019-04-19T08:30:58.944Z,1007.91
2019-04-19T08:32:21.641Z,1007.98
2019-04-19T08:33:33.708Z,1007.95
2019-04-19T08:34:55.478Z,1007.89
2019-04-19T08:36:31.042Z,1007.95
2019-04-19T08:38:16.304Z,1007.89
2019-04-19T08:40:08.012Z,1007.83
2019-04-19T08:42:59.625Z,1007.87
2019-04-19T08:45:38.112Z,1007.9
2019-04-19T08:46:49.442Z,1007.86
2019-04-19T08:48:08.905Z,1007.87
2019-04-19T08:49:59.407Z,1007.83
2019-04-19T08:51:25.472Z,1007.8
2019-04-19T08:52:54.224Z,1007.77
2019-04-19T08:55:48.751Z,1007.79
2019-04-19T08:58:01.583Z,1007.83
2019-04-19T09:01:13.638Z,1007.86
2019-04-19T09:04:17.971Z,1007.93
2019-04-19T09:07:50.899Z,1007.91
2019-04-19T09:11:15.920Z,1007.85
2019-04-19T09:14:30.174Z,1007.77
2019-04-19T09:17:22.643Z,1007.75
2019-04-19T09:21:30.643Z,1007.69
2019-04-19T09:24:02.748Z,1007.67
2019-04-19T09:26:08.860Z,1007.66
2019-04-19T09:29:23.804Z,1007.67
2019-04-19T09:32:21.423Z,1007.62
2019-04-19T09:33:54.353Z,1007.59
2019-04-19T09:35:30.831Z,1007.59
2019-04-19T09:37:26.386Z,1007.59
2019-04-19T09:39:59.446Z,1007.63
2019-04-19T09:41:59.758Z,1007.65
2019-04-19T09:44:26.490Z,1007.63
2019-04-19T09:46:04.019Z,1007.62
2019-04-19T09:47:16.299Z,1007.58
2019-04-19T09:48:46.040Z,1007.59
2019-04-19T09:51:27.757Z,1007.57
2019-04-19T09:54:51.076Z,1007.54
2019-04-19T09:58:11.326Z,1007.46
2019-04-19T10:00:28.859Z,1007.45
2019-04-19T10:01:48.424Z,1007.42
2019-04-19T10:03:31.405Z,1007.38
2019-04-19T10:05:08.118Z,1007.36
2019-04-19T10:06:20.658Z,1007.35
2019-04-19T10:07:32.581Z,1007.3
2019-04-19T10:08:43.676Z,1007.36
2019-04-19T10:10:02.529Z,1007.38
2019-04-19T10:11:23.086Z,1007.36
2019-04-19T10:12:33.692Z,1007.34
2019-04-19T10:13:44.047Z,1007.34
2019-04-19T10:14:57.683Z,1007.38
2019-04-19T10:16:10.380Z,1007.37
2019-04-19T10:17:22.711Z,1007.38
2019-04-19T10:18:45.834Z,1007.34
2019-04-19T10:20:15.137Z,1007.31
2019-04-19T10:21:32.169Z,1007.31
2019-04-19T10:22:50.896Z,1007.26
2019-04-19T10:24:12.631Z,1007.31
2019-04-19T10:25:32.974Z,1007.3
2019-04-19T10:27:12.775Z,1007.26
2019-04-19T10:28:26.834Z,1007.22
2019-04-19T10:29:41.766Z,1007.24
2019-04-19T10:30:56.767Z,1007.19
2019-04-19T10:32:08.535Z,1007.19
2019-04-19T10:33:29.590Z,1007.2
2019-04-19T10:35:07.275Z,1007.21
2019-04-19T10:36:18.671Z,1007.22
2019-04-19T10:37:31.622Z,1007.2
2019-04-19T10:38:45.439Z,1007.19
2019-04-19T10:40:02.208Z,1007.13
2019-04-19T10:41:13.731Z,1007.12
2019-04-19T10:42:27.169Z,1007.14
2019-04-19T10:43:39.451Z,1007.14
2019-04-19T10:45:20.553Z,1007.08
2019-04-19T10:46:32.914Z,1007.06
2019-04-19T10:47:45.935Z,1007.11
2019-04-19T10:49:06.315Z,1007.04
2019-04-19T10:50:59.456Z,1007.02
2019-04-19T10:52:15.686Z,1007.05
2019-04-19T10:53:26.782Z,1007.02
2019-04-19T10:54:39.127Z,1007.02
2019-04-19T10:55:50.370Z,1007.06
2019-04-19T10:57:03.990Z,1007.05
2019-04-19T10:58:19.097Z,1007.02
2019-04-19T10:59:30.572Z,1007.06
2019-04-19T11:00:43.258Z,1007.03
2019-04-19T11:01:54.197Z,1007.04
2019-04-19T11:03:06.794Z,1007.03
2019-04-19T11:04:17.696Z,1006.97
2019-04-19T11:05:29.706Z,1007.01
2019-04-19T11:06:41.755Z,1007
2019-04-19T11:07:54.006Z,1007
2019-04-19T11:09:06.795Z,1006.94
2019-04-19T11:10:17.872Z,1006.92
2019-04-19T11:11:28.204Z,1006.97
2019-04-19T11:12:40.792Z,1006.99
2019-04-19T11:13:54.105Z,1006.92
2019-04-19T11:15:06.765Z,1006.97
2019-04-19T11:16:19.420Z,1006.97
2019-04-19T11:17:31.910Z,1006.98
2019-04-19T11:18:45.668Z,1006.98
2019-04-19T11:20:22.542Z,1007.03
2019-04-19T11:21:59.399Z,1007.08
2019-04-19T11:23:13.482Z,1007.07
2019-04-19T11:24:27.690Z,1007.07
2019-04-19T11:25:39.999Z,1007.03
2019-04-19T11:26:57.463Z,1006.95
2019-04-19T11:28:09.624Z,1007.02
2019-04-19T11:29:21.933Z,1006.88
2019-04-19T11:30:35.113Z,1006.88
2019-04-19T11:31:47.745Z,1006.88
2019-04-19T11:32:58.984Z,1006.9
2019-04-19T11:34:11.387Z,1006.82
2019-04-19T11:35:23.462Z,1006.85
2019-04-19T11:36:35.751Z,1006.87
2019-04-19T11:37:49.066Z,1006.85
2019-04-19T11:39:01.073Z,1006.77
2019-04-19T11:40:13.265Z,1006.83
2019-04-19T11:41:25.455Z,1006.82
2019-04-19T11:42:37.410Z,1006.77
2019-04-19T11:43:49.523Z,1006.7
2019-04-19T11:45:10.393Z,1006.72
2019-04-19T11:46:22.306Z,1006.72
2019-04-19T11:47:33.258Z,1006.71
2019-04-19T11:48:43.753Z,1006.73
2019-04-19T11:49:55.905Z,1006.73
2019-04-19T11:51:07.753Z,1006.69
2019-04-19T11:52:20.016Z,1006.77
2019-04-19T11:53:32.633Z,1006.66
2019-04-19T11:54:46.416Z,1006.65
2019-04-19T11:56:04.542Z,1006.66
2019-04-19T11:57:15.029Z,1006.67
2019-04-19T11:58:26.661Z,1006.57
2019-04-19T11:59:47.244Z,1006.58
2019-04-19T12:01:07.823Z,1006.6
2019-04-19T12:02:21.198Z,1006.58
2019-04-19T12:03:38.941Z,1006.55
2019-04-19T12:04:52.888Z,1006.55
2019-04-19T12:06:24.625Z,1006.58
2019-04-19T12:07:36.674Z,1006.57
2019-04-19T12:08:49.685Z,1006.51
2019-04-19T12:10:02.921Z,1006.48
2019-04-19T12:11:14.990Z,1006.51
2019-04-19T12:12:27.553Z,1006.49
2019-04-19T12:13:41.123Z,1006.49
2019-04-19T12:14:53.351Z,1006.45
2019-04-19T12:16:06.567Z,1006.45
2019-04-19T12:17:18.449Z,1006.41
2019-04-19T12:18:30.431Z,1006.43
2019-04-19T12:19:52.653Z,1006.42
2019-04-19T12:21:15.629Z,1006.41
2019-04-19T12:22:27.987Z,1006.4
2019-04-19T12:23:38.959Z,1006.42
2019-04-19T12:24:53.879Z,1006.4
2019-04-19T12:26:06.274Z,1006.39
2019-04-19T12:27:18.264Z,1006.38
2019-04-19T12:28:30.125Z,1006.41
2019-04-19T12:29:47.713Z,1006.36
2019-04-19T12:31:07.284Z,1006.35
2019-04-19T12:32:19.586Z,1006.39
2019-04-19T12:33:31.218Z,1006.33
2019-04-19T12:34:42.689Z,1006.37
2019-04-19T12:35:54.936Z,1006.37
2019-04-19T12:37:09.106Z,1006.31
2019-04-19T12:38:20.390Z,1006.33
2019-04-19T12:39:34.756Z,1006.31
2019-04-19T12:40:46.233Z,1006.33
2019-04-19T12:41:59.778Z,1006.26
2019-04-19T12:43:12.016Z,1006.3
2019-04-19T12:44:27.009Z,1006.32
2019-04-19T12:45:42.540Z,1006.27
2019-04-19T12:47:02.451Z,1006.23
2019-04-19T12:48:13.944Z,1006.25
2019-04-19T12:49:26.732Z,1006.19
2019-04-19T12:50:51.572Z,1006.22
2019-04-19T12:52:01.945Z,1006.2
2019-04-19T12:53:14.799Z,1006.23
2019-04-19T12:54:26.230Z,1006.22
2019-04-19T12:55:39.630Z,1006.13
2019-04-19T12:56:52.065Z,1006.16
2019-04-19T12:58:04.265Z,1006.2
2019-04-19T12:59:19.993Z,1006.18
2019-04-19T13:00:33.979Z,1006.12
2019-04-19T13:01:46.484Z,1006.12
2019-04-19T13:03:00.314Z,1006.14
2019-04-19T13:04:10.791Z,1006.15
2019-04-19T13:05:22.138Z,1006.16
2019-04-19T13:06:38.015Z,1006.11
2019-04-19T13:07:51.408Z,1006.18
2019-04-19T13:09:03.645Z,1006.21
2019-04-19T13:10:15.469Z,1006.25
2019-04-19T13:11:27.076Z,1006.33
2019-04-19T13:12:39.256Z,1006.21
2019-04-19T13:13:54.392Z,1006.23
2019-04-19T13:15:06.530Z,1006.17
2019-04-19T13:16:18.634Z,1006.22
2019-04-19T13:17:31.098Z,1006.19
2019-04-19T13:18:42.739Z,1006.12
2019-04-19T13:20:04.026Z,1006.12
2019-04-19T13:21:38.990Z,1006.15
2019-04-19T13:22:50.803Z,1006.09
2019-04-19T13:24:02.660Z,1006.14
2019-04-19T13:25:15.535Z,1006.11
2019-04-19T13:26:29.775Z,1006.06
2019-04-19T13:27:47.351Z,1006.07
2019-04-19T13:29:09.334Z,1006.02
2019-04-19T13:30:29.434Z,1006
2019-04-19T13:32:03.773Z,1006.02
2019-04-19T13:33:14.594Z,1006.02
2019-04-19T13:34:27.324Z,1006.01
2019-04-19T13:35:39.834Z,1005.94
2019-04-19T13:36:51.732Z,1005.96
2019-04-19T13:38:03.675Z,1005.98
2019-04-19T13:39:15.722Z,1005.96
2019-04-19T13:40:28.390Z,1005.99
2019-04-19T13:41:40.886Z,1005.94
2019-04-19T13:42:57.307Z,1005.96
2019-04-19T13:44:11.493Z,1006.02
2019-04-19T13:45:29.372Z,1005.91
2019-04-19T13:46:48.567Z,1005.86
2019-04-19T13:47:58.951Z,1005.91
2019-04-19T13:49:11.024Z,1005.91
2019-04-19T13:50:29.224Z,1005.84
2019-04-19T13:51:52.504Z,1005.87
2019-04-19T13:53:04.631Z,1005.9
2019-04-19T13:54:16.513Z,1005.88
2019-04-19T13:55:28.681Z,1005.99
2019-04-19T13:56:40.644Z,1005.93
2019-04-19T13:57:54.005Z,1005.87
2019-04-19T13:59:05.566Z,1005.97
2019-04-19T14:00:18.400Z,1005.92
2019-04-19T14:01:32.381Z,1005.91
2019-04-19T14:02:44.176Z,1005.87
2019-04-19T14:03:57.418Z,1005.89
2019-04-19T14:05:09.387Z,1005.87
2019-04-19T14:06:20.821Z,1005.85
2019-04-19T14:07:33.850Z,1005.86
2019-04-19T14:08:47.489Z,1005.9
2019-04-19T14:10:01.267Z,1005.89
2019-04-19T14:11:15.072Z,1005.87
2019-04-19T14:12:27.583Z,1005.83
2019-04-19T14:13:41.095Z,1005.78
2019-04-19T14:15:06.711Z,1005.76
2019-04-19T14:16:18.740Z,1005.69
2019-04-19T14:17:31.574Z,1005.66
2019-04-19T14:18:42.944Z,1005.67
2019-04-19T14:19:56.755Z,1005.67
2019-04-19T14:21:08.673Z,1005.68
2019-04-19T14:22:21.216Z,1005.6
2019-04-19T14:23:33.335Z,1005.57
2019-04-19T14:24:49.366Z,1005.58
2019-04-19T14:26:05.371Z,1005.68
2019-04-19T14:27:31.079Z,1005.68
2019-04-19T14:28:43.344Z,1005.68
2019-04-19T14:29:57.529Z,1005.69
2019-04-19T14:31:10.275Z,1005.69
2019-04-19T14:32:23.247Z,1005.64
2019-04-19T14:33:35.380Z,1005.73
2019-04-19T14:34:49.814Z,1005.72
2019-04-19T14:36:02.210Z,1005.73
2019-04-19T14:37:15.645Z,1005.73
2019-04-19T14:38:29.770Z,1005.72
2019-04-19T14:39:42.615Z,1005.74
2019-04-19T14:40:55.499Z,1005.65
2019-04-19T14:42:08.157Z,1005.7
2019-04-19T14:43:20.479Z,1005.74
2019-04-19T14:44:31.513Z,1005.71
2019-04-19T14:45:44.306Z,1005.7
2019-04-19T14:46:56.811Z,1005.7
2019-04-19T14:48:09.083Z,1005.49
2019-04-19T14:49:44.725Z,1005.55
2019-04-19T14:51:02.947Z,1005.67
2019-04-19T14:52:37.769Z,1005.62
2019-04-19T14:53:49.666Z,1005.71
2019-04-19T14:55:01.419Z,1005.81
2019-04-19T14:56:15.046Z,1005.79
2019-04-19T14:57:27.751Z,1005.72
2019-04-19T14:58:38.341Z,1005.72
2019-04-19T14:59:49.143Z,1005.6
2019-04-19T15:01:01.294Z,1005.7
2019-04-19T15:02:13.326Z,1005.7
2019-04-19T15:03:25.302Z,1005.67
2019-04-19T15:04:37.357Z,1005.68
2019-04-19T15:05:49.906Z,1005.64
2019-04-19T15:07:02.199Z,1005.57
2019-04-19T15:08:12.960Z,1005.65
2019-04-19T15:09:23.632Z,1005.61
2019-04-19T15:10:36.166Z,1005.51
2019-04-19T15:11:48.309Z,1005.6
2019-04-19T15:12:58.875Z,1005.56
2019-04-19T15:14:12.241Z,1005.65
2019-04-19T15:15:24.717Z,1005.64
2019-04-19T15:16:36.739Z,1005.7
2019-04-19T15:17:50.288Z,1005.63
2019-04-19T15:19:02.942Z,1005.69
2019-04-19T15:20:16.025Z,1005.68
2019-04-19T15:21:28.043Z,1005.64
2019-04-19T15:22:42.200Z,1005.58
2019-04-19T15:23:54.499Z,1005.61
2019-04-19T15:25:06.643Z,1005.74
2019-04-19T15:26:20.735Z,1005.89
2019-04-19T15:27:32.812Z,1005.68
2019-04-19T15:28:44.858Z,1005.39
2019-04-19T15:29:56.934Z,1005.46
2019-04-19T15:31:08.310Z,1005.4
2019-04-19T15:32:20.232Z,1005.35
2019-04-19T15:33:34.248Z,1005.31
2019-04-19T15:34:45.553Z,1005.29
2019-04-19T15:35:59.776Z,1005.24
2019-04-19T15:37:14.022Z,1005.24
2019-04-19T15:38:26.085Z,1005.24
2019-04-19T15:39:38.227Z,1005.16
2019-04-19T15:40:50.119Z,1005.09
2019-04-19T15:42:02.459Z,1005.07
2019-04-19T15:43:15.015Z,1005.08
2019-04-19T15:44:26.616Z,1005.06
2019-04-19T15:45:38.954Z,1005.01
2019-04-19T15:46:51.577Z,1004.99
2019-04-19T15:48:05.118Z,1005.01
2019-04-19T15:49:39.918Z,1004.94
2019-04-19T15:50:53.013Z,1004.96
2019-04-19T15:52:42.014Z,1004.96
2019-04-19T15:53:54.818Z,1004.95
2019-04-19T15:55:06.340Z,1004.93
2019-04-19T15:56:18.363Z,1004.96
2019-04-19T15:57:30.575Z,1004.95
2019-04-19T15:58:42.710Z,1004.93
2019-04-19T15:59:55.825Z,1004.9
2019-04-19T16:01:08.174Z,1004.95
2019-04-19T16:02:20.243Z,1004.93
2019-04-19T16:03:32.337Z,1004.9
2019-04-19T16:04:44.355Z,1004.92
2019-04-19T16:05:56.191Z,1004.87
2019-04-19T16:07:08.285Z,1004.9
2019-04-19T16:08:20.542Z,1004.87
2019-04-19T16:09:33.309Z,1004.85
2019-04-19T16:10:46.632Z,1004.86
2019-04-19T16:11:58.951Z,1004.84
2019-04-19T16:13:11.971Z,1004.83
2019-04-19T16:14:24.107Z,1004.79
2019-04-19T16:15:36.150Z,1004.78
2019-04-19T16:16:49.049Z,1004.8
2019-04-19T16:18:01.998Z,1004.79
2019-04-19T16:19:14.448Z,1004.77
2019-04-19T16:20:27.195Z,1004.8
2019-04-19T16:21:43.265Z,1004.81
2019-04-19T16:23:10.112Z,1004.77
2019-04-19T16:24:21.472Z,1004.77
2019-04-19T16:25:34.179Z,1004.76
2019-04-19T16:26:49.132Z,1004.83
2019-04-19T16:28:01.269Z,1004.79
2019-04-19T16:29:24.120Z,1004.78
2019-04-19T16:31:02.120Z,1004.78
2019-04-19T16:32:14.705Z,1004.82
2019-04-19T16:33:25.947Z,1004.8
2019-04-19T16:34:38.808Z,1004.79
2019-04-19T16:35:50.039Z,1004.78
2019-04-19T16:37:02.618Z,1004.79
2019-04-19T16:38:16.341Z,1004.78
2019-04-19T16:39:30.991Z,1004.77
2019-04-19T16:40:42.741Z,1004.75
2019-04-19T16:41:55.341Z,1004.79
2019-04-19T16:43:08.156Z,1004.71
2019-04-19T16:44:20.038Z,1004.71
2019-04-19T16:45:32.498Z,1004.7
2019-04-19T16:46:45.372Z,1004.73
2019-04-19T16:47:57.630Z,1004.73
2019-04-19T16:49:12.722Z,1004.68
2019-04-19T16:50:25.483Z,1004.72
2019-04-19T16:51:44.093Z,1004.7
2019-04-19T16:53:06.784Z,1004.72
2019-04-19T16:54:20.419Z,1004.69
2019-04-19T16:55:31.720Z,1004.67
2019-04-19T16:56:42.080Z,1004.64
2019-04-19T16:58:14.805Z,1004.65
2019-04-19T16:59:27.940Z,1004.68
2019-04-19T17:00:40.742Z,1004.64
2019-04-19T17:01:52.985Z,1004.6
2019-04-19T17:03:05.125Z,1004.63
2019-04-19T17:04:15.590Z,1004.59
2019-04-19T17:05:30.663Z,1004.61
2019-04-19T17:06:42.782Z,1004.62
2019-04-19T17:07:55.350Z,1004.59
2019-04-19T17:09:08.770Z,1004.59
2019-04-19T17:10:21.991Z,1004.58
2019-04-19T17:11:35.697Z,1004.58
2019-04-19T17:12:47.758Z,1004.63
2019-04-19T17:14:02.827Z,1004.63
2019-04-19T17:15:15.261Z,1004.62
2019-04-19T17:16:29.359Z,1004.62
2019-04-19T17:17:45.181Z,1004.6
2019-04-19T17:18:57.157Z,1004.59
2019-04-19T17:20:10.817Z,1004.55
2019-04-19T17:21:22.270Z,1004.57
2019-04-19T17:22:48.417Z,1004.59
2019-04-19T17:24:00.775Z,1004.58
2019-04-19T17:25:14.799Z,1004.55
2019-04-19T17:26:26.720Z,1004.51
2019-04-19T17:27:38.880Z,1004.5
2019-04-19T17:28:50.768Z,1004.54
2019-04-19T17:30:02.265Z,1004.54
2019-04-19T17:31:16.084Z,1004.57
2019-04-19T17:32:28.113Z,1004.53
2019-04-19T17:33:40.033Z,1004.51
2019-04-19T17:34:52.041Z,1004.48
2019-04-19T17:36:03.950Z,1004.45
2019-04-19T17:37:16.015Z,1004.48
2019-04-19T17:38:35.673Z,1004.45
2019-04-19T17:40:01.142Z,1004.49
2019-04-19T17:41:15.056Z,1004.45
2019-04-19T17:42:28.643Z,1004.46
2019-04-19T17:43:41.502Z,1004.43
2019-04-19T17:44:53.879Z,1004.45
2019-04-19T17:46:06.585Z,1004.49
2019-04-19T17:47:24.212Z,1004.49
2019-04-19T17:48:48.521Z,1004.45
2019-04-19T17:50:00.447Z,1004.47
2019-04-19T17:51:11.892Z,1004.47
2019-04-19T17:52:27.023Z,1004.49
2019-04-19T17:53:46.896Z,1004.46
2019-04-19T17:55:12.619Z,1004.48
2019-04-19T17:56:57.354Z,1004.47
2019-04-19T17:58:09.757Z,1004.45
2019-04-19T17:59:22.864Z,1004.45
2019-04-19T18:00:34.737Z,1004.5
2019-04-19T18:01:46.541Z,1004.48
2019-04-19T18:02:59.276Z,1004.47
2019-04-19T18:04:11.422Z,1004.47
2019-04-19T18:05:26.532Z,1004.46
2019-04-19T18:06:38.878Z,1004.47
2019-04-19T18:08:08.503Z,1004.5
2019-04-19T18:09:45.507Z,1004.5
2019-04-19T18:11:25.431Z,1004.53
2019-04-19T18:12:43.669Z,1004.52
2019-04-19T18:13:57.002Z,1004.48
2019-04-19T18:15:09.700Z,1004.46
2019-04-19T18:16:20.637Z,1004.49
2019-04-19T18:17:33.527Z,1004.46
2019-04-19T18:18:57.208Z,1004.48
2019-04-19T18:20:23.377Z,1004.45
2019-04-19T18:21:41.968Z,1004.47
2019-04-19T18:23:03.587Z,1004.51
2019-04-19T18:25:07.130Z,1004.49
2019-04-19T18:26:26.986Z,1004.45
2019-04-19T18:27:51.638Z,1004.5
2019-04-19T18:29:23.220Z,1004.5
2019-04-19T18:30:42.923Z,1004.45
2019-04-19T18:32:10.064Z,1004.5
2019-04-19T18:33:22.188Z,1004.49
2019-04-19T18:34:47.406Z,1004.51
2019-04-19T18:36:05.104Z,1004.51
2019-04-19T18:37:46.468Z,1004.52
2019-04-19T18:39:00.242Z,1004.53
2019-04-19T18:40:13.098Z,1004.5
2019-04-19T18:41:25.429Z,1004.56
2019-04-19T18:42:45.963Z,1004.56
2019-04-19T18:45:04.771Z,1004.6
2019-04-19T18:46:38.639Z,1004.6
2019-04-19T18:47:50.707Z,1004.59
2019-04-19T18:49:03.356Z,1004.58
2019-04-19T18:50:16.244Z,1004.56
2019-04-19T18:51:36.162Z,1004.61
2019-04-19T18:53:11.736Z,1004.59
2019-04-19T18:55:27.255Z,1004.57
2019-04-19T18:57:01.238Z,1004.64
2019-04-19T18:58:21.032Z,1004.63
2019-04-19T18:59:49.639Z,1004.66
2019-04-19T19:01:11.969Z,1004.64
2019-04-19T19:02:52.804Z,1004.66
2019-04-19T19:04:17.628Z,1004.62
2019-04-19T19:05:44.019Z,1004.64
2019-04-19T19:07:18.961Z,1004.65
2019-04-19T19:08:45.661Z,1004.64
2019-04-19T19:10:30.832Z,1004.65
2019-04-19T19:12:12.003Z,1004.62
2019-04-19T19:13:30.612Z,1004.63
2019-04-19T19:14:55.400Z,1004.62
2019-04-19T19:16:18.287Z,1004.68
2019-04-19T19:17:48.830Z,1004.62
2019-04-19T19:19:15.043Z,1004.61
2019-04-19T19:20:49.404Z,1004.61
2019-04-19T19:22:22.900Z,1004.64
2019-04-19T19:24:52.017Z,1004.65
2019-04-19T19:27:20.362Z,1004.62
2019-04-19T19:28:40.695Z,1004.64
2019-04-19T19:29:52.733Z,1004.61
2019-04-19T19:31:05.163Z,1004.63
2019-04-19T19:32:17.993Z,1004.66
2019-04-19T19:33:37.659Z,1004.69
2019-04-19T19:35:01.875Z,1004.66
2019-04-19T19:36:40.472Z,1004.69
2019-04-19T19:38:09.490Z,1004.66
2019-04-19T19:43:02.350Z,1004.69
2019-04-19T19:45:43.429Z,1004.71
2019-04-19T19:49:24.914Z,1004.66
2019-04-19T19:52:55.655Z,1004.66
2019-04-19T19:56:46.867Z,1004.63
2019-04-19T19:59:22.277Z,1004.63
2019-04-19T20:01:33.893Z,1004.6
2019-04-19T20:04:02.362Z,1004.62
2019-04-19T20:05:22.107Z,1004.64
2019-04-19T20:06:53.466Z,1004.63
2019-04-19T20:08:34.380Z,1004.63
2019-04-19T20:10:05.373Z,1004.62
2019-04-19T20:11:37.727Z,1004.61
2019-04-19T20:12:55.874Z,1004.58
2019-04-19T20:14:28.289Z,1004.59
2019-04-19T20:15:56.626Z,1004.63
2019-04-19T20:17:25.437Z,1004.57
2019-04-19T20:18:52.627Z,1004.58